createdAt,value
2019-06-10T00:02:30.767Z,101265.98
2019-06-10T00:05:03.747Z,101262.24
2019-06-10T00:07:34.833Z,101268.94
2019-06-10T00:10:07.937Z,101256.50
2019-06-10T00:12:41.946Z,101261.47
2019-06-10T00:15:17.274Z,101252.14
2019-06-10T00:18:01.260Z,101253.84
2019-06-10T00:20:23.958Z,101252.96
2019-06-10T00:22:55.618Z,101247.56
2019-06-10T00:25:27.382Z,101242.98
2019-06-10T00:27:58.562Z,101246.02
2019-06-10T00:30:31.413Z,101240.62
2019-06-10T00:33:05.883Z,101243.11
2019-06-10T00:35:36.862Z,101235.45
2019-06-10T00:38:09.355Z,101239.89
2019-06-10T00:40:44.872Z,101236.52
2019-06-10T00:43:16.626Z,101231.91
2019-06-10T00:45:48.164Z,101230.44
2019-06-10T00:48:26.192Z,101229.80
2019-06-10T00:50:54.627Z,101231.41
2019-06-10T00:53:26.525Z,101233.28
2019-06-10T00:55:58.297Z,101238.81
2019-06-10T00:58:32.699Z,101237.11
2019-06-10T01:01:05.986Z,101234.56
2019-06-10T01:03:37.444Z,101235.11
2019-06-10T01:06:13.078Z,101234.79
2019-06-10T01:08:43.004Z,101241.27
2019-06-10T01:11:21.303Z,101234.14
2019-06-10T01:13:47.845Z,101241.41
2019-06-10T01:16:21.801Z,101237.97
2019-06-10T01:18:53.754Z,101240.13
2019-06-10T01:21:25.367Z,101245.03
2019-06-10T01:23:57.227Z,101244.77
2019-06-10T01:26:31.023Z,101247.16
2019-06-10T01:29:05.667Z,101251.31
2019-06-10T01:31:36.978Z,101253.31
2019-06-10T01:34:10.030Z,101253.23
2019-06-10T01:36:42.048Z,101253.63
2019-06-10T01:39:15.203Z,101261.51
2019-06-10T01:41:47.203Z,101253.29
2019-06-10T01:44:18.868Z,101251.48
2019-06-10T01:46:51.601Z,101250.66
2019-06-10T01:49:23.200Z,101252.03
2019-06-10T01:51:56.381Z,101250.92
2019-06-10T01:54:27.827Z,101254.14
2019-06-10T01:57:01.427Z,101251.78
2019-06-10T01:59:32.363Z,101248.41
2019-06-10T02:02:05.763Z,101249.73
2019-06-10T02:04:37.516Z,101249.03
2019-06-10T02:07:13.395Z,101251.44
2019-06-10T02:09:43.074Z,101257.92
2019-06-10T02:12:17.602Z,101260.48
2019-06-10T02:14:47.922Z,101263.84
2019-06-10T02:17:23.578Z,101253.73
2019-06-10T02:19:53.189Z,101256.95
2019-06-10T02:22:24.935Z,101258.24
2019-06-10T02:25:01.233Z,101263.39
2019-06-10T02:27:32.333Z,101264.23
2019-06-10T02:30:14.924Z,101267.34
2019-06-10T02:32:43.004Z,101264.97
2019-06-10T02:35:26.191Z,101266.97
2019-06-10T02:37:47.967Z,101260.33
2019-06-10T02:40:25.610Z,101262.55
2019-06-10T02:42:54.755Z,101256.04
2019-06-10T02:45:32.550Z,101250.17
2019-06-10T02:48:03.901Z,101255.84
2019-06-10T02:50:54.719Z,101258.09
2019-06-10T02:53:30.765Z,101260.09
2019-06-10T02:56:00.364Z,101263.92
2019-06-10T02:58:38.880Z,101277.31
2019-06-10T03:01:06.965Z,101275.17
2019-06-10T03:03:44.499Z,101278.92
2019-06-10T03:06:17.417Z,101285.88
2019-06-10T03:08:47.964Z,101282.05
2019-06-10T03:11:22.259Z,101279.34
2019-06-10T03:13:53.147Z,101280.30
2019-06-10T03:16:35.308Z,101276.52
2019-06-10T03:19:07.371Z,101280.80
2019-06-10T03:21:39.128Z,101281.45
2019-06-10T03:24:12.978Z,101276.69
2019-06-10T03:26:43.972Z,101279.34
2019-06-10T03:29:16.499Z,101281.37
2019-06-10T03:31:54.739Z,101276.64
2019-06-10T03:34:35.370Z,101275.59
2019-06-10T03:36:56.813Z,101280.13
2019-06-10T03:39:28.732Z,101277.64
2019-06-10T03:42:02.279Z,101274.31
2019-06-10T03:44:33.538Z,101276.59
2019-06-10T03:47:05.706Z,101279.19
2019-06-10T03:49:51.735Z,101275.26
2019-06-10T03:52:12.821Z,101276.48
2019-06-10T03:54:44.619Z,101276.81
2019-06-10T03:57:17.173Z,101287.06
2019-06-10T03:59:48.691Z,101276.95
2019-06-10T04:02:23.525Z,101282.03
2019-06-10T04:04:54.338Z,101292.21
2019-06-10T04:07:30.565Z,101287.73
2019-06-10T04:09:58.889Z,101288.64
2019-06-10T04:12:32.757Z,101280.22
2019-06-10T04:15:04.956Z,101289.03
2019-06-10T04:17:36.316Z,101296.12
2019-06-10T04:20:12.349Z,101292.23
2019-06-10T04:22:41.253Z,101292.81
2019-06-10T04:25:13.112Z,101300.23
2019-06-10T04:27:44.261Z,101297.19
2019-06-10T04:30:18.494Z,101294.69
2019-06-10T04:32:49.678Z,101293.59
2019-06-10T04:35:23.353Z,101291.33
2019-06-10T04:37:54.876Z,101295.05
2019-06-10T04:40:29.299Z,101294.77
2019-06-10T04:43:02.996Z,101290.24
2019-06-10T04:45:34.538Z,101291.98
2019-06-10T04:48:06.191Z,101289.75
2019-06-10T04:50:45.557Z,101287.52
2019-06-10T04:53:12.939Z,101286.66
2019-06-10T04:55:44.532Z,101292.06
2019-06-10T04:58:16.187Z,101290.38
2019-06-10T05:00:48.606Z,101301.13
2019-06-10T05:03:23.543Z,101298.31
2019-06-10T05:05:54.481Z,101295.49
2019-06-10T05:08:28.484Z,101290.42
2019-06-10T05:11:00.191Z,101296.08
2019-06-10T05:13:33.558Z,101290.42
2019-06-10T05:16:05.652Z,101282.47
2019-06-10T05:18:37.409Z,101287.26
2019-06-10T05:21:09.879Z,101285.30
2019-06-10T05:23:43.004Z,101294.63
2019-06-10T05:26:14.928Z,101292.36
2019-06-10T05:28:46.793Z,101289.20
2019-06-10T05:31:18.407Z,101293.77
2019-06-10T05:33:49.997Z,101288.95
2019-06-10T05:36:27.080Z,101298.86
2019-06-10T05:38:57.300Z,101296.06
2019-06-10T05:41:30.742Z,101297.45
2019-06-10T05:44:03.745Z,101304.52
2019-06-10T05:46:36.454Z,101304.44
2019-06-10T05:49:07.911Z,101303.80
2019-06-10T05:51:42.114Z,101301.75
2019-06-10T05:54:12.921Z,101308.56
2019-06-10T05:56:47.270Z,101312.81
2019-06-10T05:59:18.809Z,101316.39
2019-06-10T06:01:53.681Z,101313.08
2019-06-10T06:04:25.088Z,101308.70
2019-06-10T06:06:56.962Z,101307.02
2019-06-10T06:09:29.243Z,101310.05
2019-06-10T06:12:02.489Z,101308.25
2019-06-10T06:14:34.712Z,101305.07
2019-06-10T06:17:06.660Z,101305.92
2019-06-10T06:19:39.018Z,101304.70
2019-06-10T06:22:12.930Z,101304.86
2019-06-10T06:24:44.788Z,101307.53
2019-06-10T06:27:16.731Z,101310.44
2019-06-10T06:29:48.510Z,101302.43
2019-06-10T06:32:20.227Z,101304.51
2019-06-10T06:34:52.926Z,101302.42
2019-06-10T06:37:26.868Z,101302.92
2019-06-10T06:39:59.939Z,101312.36
2019-06-10T06:42:33.889Z,101306.25
2019-06-10T06:45:06.851Z,101314.57
2019-06-10T06:47:39.113Z,101311.67
2019-06-10T06:50:12.916Z,101315.27
2019-06-10T06:53:15.589Z,101314.33
2019-06-10T06:55:17.327Z,101309.58
2019-06-10T06:57:48.679Z,101313.22
2019-06-10T07:00:45.025Z,101309.72
2019-06-10T07:02:58.037Z,101305.58
2019-06-10T07:05:32.727Z,101305.77
2019-06-10T07:08:05.349Z,101311.03
2019-06-10T07:10:39.248Z,101306.75
2019-06-10T07:13:10.010Z,101306.75
2019-06-10T07:15:47.001Z,101311.44
2019-06-10T07:18:16.263Z,101303.54
2019-06-10T07:20:48.520Z,101305.96
2019-06-10T07:23:22.397Z,101302.78
2019-06-10T07:25:53.302Z,101305.67
2019-06-10T07:28:25.021Z,101307.48
2019-06-10T07:30:56.678Z,101303.71
2019-06-10T07:33:28.431Z,101300.16
2019-06-10T07:36:02.946Z,101297.19
2019-06-10T07:38:35.562Z,101300.16
2019-06-10T07:41:06.364Z,101300.45
2019-06-10T07:43:42.144Z,101301.08
2019-06-10T07:46:13.400Z,101300.55
2019-06-10T07:48:48.200Z,101295.50
2019-06-10T07:51:22.384Z,101294.84
2019-06-10T07:53:53.034Z,101297.78
2019-06-10T07:56:24.377Z,101282.03
2019-06-10T07:58:55.703Z,101287.69
2019-06-10T08:01:27.461Z,101281.37
2019-06-10T08:04:00.276Z,101283.19
2019-06-10T08:06:33.516Z,101280.91
2019-06-10T08:09:07.911Z,101283.27
2019-06-10T08:11:39.456Z,101280.39
2019-06-10T08:14:12.999Z,101274.37
2019-06-10T08:16:46.702Z,101275.52
2019-06-10T08:19:31.661Z,101263.38
2019-06-10T08:21:53.662Z,101269.23
2019-06-10T08:24:25.983Z,101263.63
2019-06-10T08:26:57.289Z,101257.94
2019-06-10T08:29:29.506Z,101262.10
2019-06-10T08:32:03.334Z,101263.16
2019-06-10T08:34:36.001Z,101260.45
2019-06-10T08:37:07.859Z,101264.07
2019-06-10T08:39:40.219Z,101260.78
2019-06-10T08:42:14.535Z,101257.33
2019-06-10T08:44:48.422Z,101253.75
2019-06-10T08:47:22.827Z,101255.19
2019-06-10T08:49:54.155Z,101243.44
2019-06-10T08:52:25.765Z,101252.94
2019-06-10T08:54:59.357Z,101248.86
2019-06-10T08:57:33.497Z,101250.98
2019-06-10T09:00:14.713Z,101247.23
2019-06-10T09:02:41.930Z,101248.45
2019-06-10T09:05:14.507Z,101245.27
2019-06-10T09:07:50.867Z,101231.27
2019-06-10T09:10:22.703Z,101232.42
2019-06-10T09:12:54.741Z,101233.93
2019-06-10T09:15:27.425Z,101228.06
2019-06-10T09:17:58.902Z,101230.06
2019-06-10T09:20:33.350Z,101226.70
2019-06-10T09:23:21.003Z,101223.84
2019-06-10T09:25:45.758Z,101219.91
2019-06-10T09:28:15.233Z,101214.70
2019-06-10T09:30:56.161Z,101206.59
2019-06-10T09:33:23.030Z,101211.80
2019-06-10T09:35:55.107Z,101205.91
2019-06-10T09:38:34.583Z,101197.20
2019-06-10T09:41:06.557Z,101202.77
2019-06-10T09:43:38.263Z,101201.77
2019-06-10T09:46:12.635Z,101198.73
2019-06-10T09:48:49.632Z,101190.55
2019-06-10T09:51:18.436Z,101191.91
2019-06-10T09:54:02.405Z,101189.12
2019-06-10T09:56:24.124Z,101185.86
2019-06-10T09:58:55.572Z,101187.98
2019-06-10T10:01:26.938Z,101189.63
2019-06-10T10:04:00.413Z,101178.01
2019-06-10T10:06:32.675Z,101178.47
2019-06-10T10:09:07.356Z,101178.47
2019-06-10T10:11:38.783Z,101145.30
2019-06-10T10:14:16.044Z,101174.79
2019-06-10T10:16:49.400Z,101171.50
2019-06-10T10:19:18.941Z,101173.38
2019-06-10T10:21:56.034Z,101167.68
2019-06-10T10:24:23.962Z,101168.45
2019-06-10T10:26:57.942Z,101160.03
2019-06-10T10:29:29.701Z,101160.03
2019-06-10T10:32:02.625Z,101150.64
2019-06-10T10:34:35.310Z,101152.31
2019-06-10T10:37:06.864Z,101148.89
2019-06-10T10:39:38.528Z,101140.89
2019-06-10T10:42:12.478Z,101135.23
2019-06-10T10:44:46.213Z,101137.32
2019-06-10T10:47:17.658Z,101124.56
2019-06-10T10:49:50.242Z,101124.03
2019-06-10T10:52:22.935Z,101118.45
2019-06-10T10:54:55.620Z,101128.16
2019-06-10T10:57:26.894Z,101122.69
2019-06-10T10:59:58.559Z,101128.39
2019-06-10T11:02:32.325Z,101116.09
2019-06-10T11:05:04.050Z,101116.77
2019-06-10T11:07:37.575Z,101113.63
2019-06-10T11:10:09.538Z,101115.30
2019-06-10T11:12:46.971Z,101112.16
2019-06-10T11:15:23.137Z,101110.06
2019-06-10T11:17:56.487Z,101099.00
2019-06-10T11:20:28.355Z,101103.34
2019-06-10T11:23:02.958Z,101103.91
2019-06-10T11:25:34.643Z,101100.23
2019-06-10T11:28:09.218Z,101099.40
2019-06-10T11:30:42.528Z,101087.27
2019-06-10T11:33:15.974Z,101082.72
2019-06-10T11:35:48.789Z,101079.84
2019-06-10T11:38:23.489Z,101089.28
2019-06-10T11:40:58.084Z,101078.09
2019-06-10T11:43:29.934Z,101072.86
2019-06-10T11:46:07.511Z,101075.94
2019-06-10T11:48:36.691Z,101063.84
2019-06-10T11:51:08.794Z,101062.87
2019-06-10T11:53:40.424Z,101066.66
2019-06-10T11:56:14.053Z,101056.48
2019-06-10T11:58:45.675Z,101052.49
2019-06-10T12:01:17.129Z,101051.33
2019-06-10T12:03:48.879Z,101041.73
2019-06-10T12:06:22.861Z,101047.98
2019-06-10T12:08:58.113Z,101042.58
2019-06-10T12:11:26.882Z,101034.91
2019-06-10T12:14:04.397Z,101034.25
2019-06-10T12:19:09.257Z,101029.08
2019-06-10T12:21:43.421Z,101035.50
2019-06-10T12:24:14.740Z,101029.55
2019-06-10T12:26:46.569Z,101031.57
2019-06-10T12:29:18.224Z,101034.03
2019-06-10T12:31:51.390Z,101020.80
2019-06-10T12:34:24.716Z,101024.86
2019-06-10T12:37:01.682Z,101019.17
2019-06-10T12:39:29.491Z,101019.25
2019-06-10T12:42:04.003Z,101014.31
2019-06-10T12:44:34.410Z,101010.13
2019-06-10T12:47:08.354Z,101017.59
2019-06-10T12:49:39.966Z,101006.35
2019-06-10T12:52:12.728Z,101008.05
2019-06-10T12:54:45.830Z,101010.57
2019-06-10T12:57:18.178Z,101001.40
2019-06-10T12:59:52.393Z,100998.34
2019-06-10T13:02:31.124Z,100999.13
2019-06-10T13:04:57.653Z,100997.41
2019-06-10T13:07:32.476Z,100994.42
2019-06-10T13:10:05.001Z,100990.76
2019-06-10T13:12:36.632Z,100995.06
2019-06-10T13:15:09.656Z,100993.16
2019-06-10T13:17:43.957Z,100988.75
2019-06-10T13:20:14.251Z,100981.88
2019-06-10T13:22:46.112Z,100978.16
2019-06-10T13:25:17.664Z,100982.63
2019-06-10T13:27:51.827Z,100985.91
2019-06-10T13:30:23.431Z,100982.55
2019-06-10T13:32:56.319Z,100975.42
2019-06-10T13:35:28.271Z,100976.55
2019-06-10T13:38:01.622Z,100974.72
2019-06-10T13:40:33.662Z,100973.98
2019-06-10T13:43:06.088Z,100969.37
2019-06-10T13:45:39.702Z,100965.66
2019-06-10T13:48:12.476Z,100965.45
2019-06-10T13:50:44.243Z,100963.56
2019-06-10T13:53:17.124Z,100960.95
2019-06-10T13:55:57.003Z,100962.37
2019-06-10T13:58:24.117Z,100961.81
2019-06-10T14:00:55.875Z,100950.11
2019-06-10T14:03:28.048Z,100958.92
2019-06-10T14:06:11.317Z,100955.33
2019-06-10T14:08:33.406Z,100954.53
2019-06-10T14:11:07.527Z,100948.17
2019-06-10T14:13:39.683Z,100945.08
2019-06-10T14:16:14.015Z,100945.02
2019-06-10T14:18:44.322Z,100933.77
2019-06-10T14:21:18.493Z,100932.49
2019-06-10T14:23:49.363Z,100935.37
2019-06-10T14:26:34.459Z,100931.05
2019-06-10T14:28:55.573Z,100926.84
2019-06-10T14:31:42.900Z,100927.36
2019-06-10T14:34:03.732Z,100937.04
2019-06-10T14:36:35.822Z,100925.53
2019-06-10T14:39:10.058Z,100927.92
2019-06-10T14:41:43.535Z,100927.03
2019-06-10T15:05:04.402Z,100933.97
2019-06-10T15:07:36.857Z,100933.23
2019-06-10T15:10:09.649Z,100945.72
2019-06-10T15:12:43.332Z,100942.14
2019-06-10T15:15:18.030Z,100938.08
2019-06-10T15:17:52.391Z,100936.87
2019-06-10T15:20:23.646Z,100939.77
2019-06-10T15:22:57.288Z,100934.70
2019-06-10T15:25:43.771Z,100938.41
2019-06-10T15:28:03.355Z,100936.40
2019-06-10T15:30:36.767Z,100939.03
2019-06-10T15:33:11.147Z,100940.23
2019-06-10T15:35:43.442Z,100940.60
2019-06-10T15:38:17.299Z,100935.69
2019-06-10T15:40:53.291Z,100931.47
2019-06-10T15:43:24.760Z,100934.72
2019-06-10T15:45:57.997Z,100936.05
2019-06-10T15:48:29.502Z,100927.89
2019-06-10T15:51:03.223Z,100937.94
2019-06-10T15:53:35.840Z,100934.83
2019-06-10T15:56:22.395Z,100932.06
2019-06-10T15:58:42.873Z,100927.84
2019-06-10T16:01:20.266Z,100932.12
2019-06-10T16:03:52.840Z,100929.13
2019-06-10T16:06:24.415Z,100924.34
2019-06-10T16:08:57.699Z,100922.99
2019-06-10T16:11:29.652Z,100928.02
2019-06-10T16:14:02.900Z,100923.00
2019-06-10T16:16:37.159Z,100922.16
2019-06-10T16:19:08.722Z,100921.80
2019-06-10T16:21:42.909Z,100916.30
2019-06-10T16:24:19.056Z,100918.56
2019-06-10T16:26:52.584Z,100927.84
2019-06-10T16:29:25.265Z,100924.00
2019-06-10T16:32:08.795Z,100922.52
2019-06-10T16:34:43.007Z,100917.98
2019-06-10T16:37:15.069Z,100912.24
2019-06-10T16:39:46.832Z,100913.46
2019-06-10T16:42:19.545Z,100919.75
2019-06-10T16:44:52.807Z,100920.66
2019-06-10T16:47:27.239Z,100923.56
2019-06-10T16:49:59.263Z,100920.82
2019-06-10T16:52:34.078Z,100923.19
2019-06-10T16:55:06.549Z,100918.87
2019-06-10T16:57:38.783Z,100919.67
2019-06-10T17:00:14.463Z,100921.78
2019-06-10T17:02:46.259Z,100922.15
2019-06-10T17:05:25.088Z,100929.13
2019-06-10T17:07:57.186Z,100928.37
2019-06-10T17:10:32.010Z,100927.73
2019-06-10T17:13:09.698Z,100929.84
2019-06-10T17:15:42.488Z,100932.86
2019-06-10T17:18:13.804Z,100939.86
2019-06-10T17:20:45.546Z,100937.41
2019-06-10T17:23:26.514Z,100944.73
2019-06-10T17:25:58.744Z,100942.78
2019-06-10T17:28:36.183Z,100945.62
2019-06-10T17:31:04.152Z,100935.00
2019-06-10T17:33:36.199Z,100942.66
2019-06-10T17:36:07.970Z,100942.30
2019-06-10T17:38:43.002Z,100941.25
2019-06-10T17:41:15.695Z,100943.66
2019-06-10T17:43:48.663Z,100950.09
2019-06-10T17:46:27.343Z,100948.03
2019-06-10T17:49:02.467Z,100952.36
2019-06-10T17:51:35.554Z,100957.98
2019-06-10T17:54:07.055Z,100959.09
2019-06-10T17:56:38.871Z,100959.88
2019-06-10T17:59:12.912Z,100963.07
2019-06-10T18:01:44.891Z,100971.32
2019-06-10T18:04:17.187Z,100975.09
2019-06-10T18:06:49.119Z,100973.86
2019-06-10T18:09:24.808Z,100979.05
2019-06-10T18:11:57.031Z,100983.20
2019-06-10T18:14:30.156Z,100977.23
2019-06-10T18:17:03.399Z,100975.62
2019-06-10T18:19:37.506Z,100987.36
2019-06-10T18:22:09.283Z,100985.94
2019-06-10T18:24:42.914Z,100986.82
2019-06-10T18:27:16.537Z,100985.13
2019-06-10T18:29:49.872Z,100986.19
2019-06-10T18:32:22.917Z,100987.95
2019-06-10T18:34:54.518Z,100987.47
2019-06-10T18:37:28.171Z,100985.01
2019-06-10T18:39:59.291Z,100990.63
2019-06-10T18:42:35.851Z,100997.06
2019-06-10T18:45:13.112Z,100998.11
2019-06-10T18:47:44.475Z,100997.73
2019-06-10T18:50:18.985Z,100993.48
2019-06-10T18:52:53.364Z,100992.22
2019-06-10T18:55:26.089Z,101000.14
2019-06-10T18:57:59.820Z,100995.82
2019-06-10T19:00:49.249Z,100994.89
2019-06-10T19:03:12.726Z,101004.27
2019-06-10T19:05:42.130Z,100995.72
2019-06-10T19:08:14.309Z,100998.65
2019-06-10T19:10:47.164Z,101000.51
2019-06-10T19:13:22.195Z,101004.13
2019-06-10T19:15:53.646Z,101005.43
2019-06-10T19:18:25.707Z,101001.47
2019-06-10T19:20:59.309Z,101002.70
2019-06-10T19:23:34.673Z,101002.91
2019-06-10T19:26:06.513Z,101004.86
2019-06-10T19:28:44.754Z,101000.93
2019-06-10T19:31:14.022Z,101003.61
2019-06-10T19:33:45.666Z,100998.55
2019-06-10T19:36:18.361Z,100997.52
2019-06-10T19:38:50.827Z,100995.88
2019-06-10T19:41:22.988Z,101001.83
2019-06-10T19:43:56.282Z,100997.98
2019-06-10T19:46:28.038Z,100997.41
2019-06-10T19:49:06.272Z,101002.45
2019-06-10T19:51:34.696Z,100998.25
2019-06-10T19:54:08.219Z,101000.56
2019-06-10T19:56:39.688Z,101004.67
2019-06-10T19:59:12.758Z,101002.82
2019-06-10T20:01:46.605Z,101005.78
2019-06-10T20:04:18.480Z,101004.81
2019-06-10T20:06:53.527Z,101004.91
2019-06-10T20:09:23.035Z,101007.57
2019-06-10T20:11:55.638Z,101003.14
2019-06-10T20:14:26.990Z,101000.39
2019-06-10T20:16:59.561Z,101000.47
2019-06-10T20:19:32.739Z,101000.16
2019-06-10T20:22:04.236Z,100997.41
2019-06-10T20:24:36.882Z,100998.95
2019-06-10T20:27:08.942Z,101002.06
2019-06-10T20:29:42.981Z,101002.41
2019-06-10T20:32:15.151Z,100997.58
2019-06-10T20:34:50.304Z,100988.78
2019-06-10T20:37:23.345Z,100988.86
2019-06-10T20:39:54.892Z,100995.42
2019-06-10T20:42:27.373Z,100988.41
2019-06-10T20:44:59.125Z,100991.28
2019-06-10T20:47:33.341Z,100991.90
2019-06-10T20:50:07.755Z,100991.94
2019-06-10T20:52:43.201Z,100995.42
2019-06-10T20:55:15.267Z,100997.45
2019-06-10T20:57:55.916Z,100995.45
2019-06-10T21:00:35.287Z,100998.06
2019-06-10T21:03:08.199Z,100995.02
2019-06-10T21:05:41.607Z,100995.30
2019-06-10T21:08:14.404Z,100982.48
2019-06-10T21:10:56.113Z,100984.81
2019-06-10T21:13:27.867Z,100989.41
2019-06-10T21:16:00.138Z,100974.13
2019-06-10T21:18:32.963Z,100986.67
2019-06-10T21:21:05.701Z,100994.95
2019-06-10T21:23:37.798Z,100996.42
2019-06-10T21:26:13.026Z,100998.23
2019-06-10T21:28:48.509Z,101000.83
2019-06-10T21:31:17.645Z,101008.82
2019-06-10T21:33:51.798Z,101011.16
2019-06-10T21:36:23.048Z,100996.45
2019-06-10T21:38:56.180Z,100996.45
2019-06-10T21:41:27.631Z,101004.40
2019-06-10T21:43:59.677Z,101003.89
2019-06-10T21:46:32.806Z,101001.95
2019-06-10T21:49:04.886Z,100998.59
2019-06-10T21:51:36.691Z,100998.59
2019-06-10T21:54:09.277Z,100998.34
2019-06-10T21:56:42.754Z,100992.15
2019-06-10T21:59:13.825Z,100993.01
2019-06-10T22:01:46.430Z,101002.70
2019-06-10T22:04:18.933Z,100992.83
2019-06-10T22:06:55.466Z,100996.22
2019-06-10T22:09:24.229Z,100994.80
2019-06-10T22:11:56.068Z,100990.84
2019-06-10T22:14:27.955Z,100990.57
2019-06-10T22:16:59.691Z,100993.15
2019-06-10T22:19:32.298Z,100991.19
2019-06-10T22:22:03.708Z,100992.05
2019-06-10T22:24:35.274Z,100997.14
2019-06-10T22:27:07.040Z,100992.87
2019-06-10T22:29:38.635Z,100996.03
2019-06-10T22:32:12.976Z,100994.59
2019-06-10T22:34:47.539Z,100993.75
2019-06-10T22:37:18.879Z,100992.37
2019-06-10T22:39:52.615Z,100992.69
2019-06-10T22:42:25.465Z,100994.11
2019-06-10T22:44:58.068Z,100989.89
2019-06-10T22:47:32.377Z,100982.84
2019-06-10T22:50:07.343Z,100991.89
2019-06-10T22:52:37.812Z,100994.20
2019-06-10T22:55:12.940Z,100995.62
2019-06-10T22:57:45.211Z,101004.40
2019-06-10T23:00:17.070Z,101001.29
2019-06-10T23:02:49.894Z,101002.15
2019-06-10T23:05:23.443Z,100999.90
2019-06-10T23:07:57.430Z,101002.45
2019-06-10T23:10:29.021Z,101005.84
2019-06-10T23:13:03.060Z,101001.34
2019-06-10T23:15:33.920Z,100999.37
2019-06-10T23:18:05.722Z,101000.78
2019-06-10T23:20:37.377Z,100995.39
2019-06-10T23:23:09.398Z,100996.83
2019-06-10T23:25:43.052Z,100992.02
2019-06-10T23:28:15.118Z,100994.58
2019-06-10T23:30:46.968Z,100988.09
2019-06-10T23:33:19.985Z,100983.81
2019-06-10T23:35:52.618Z,100984.10
2019-06-10T23:38:24.729Z,100986.08
2019-06-10T23:40:57.017Z,100984.67
2019-06-10T23:43:32.863Z,100982.70
2019-06-10T23:46:04.445Z,100984.41
2019-06-10T23:48:36.422Z,100981.00
2019-06-10T23:51:08.283Z,100977.31
2019-06-10T23:53:40.041Z,100973.66
2019-06-10T23:56:12.830Z,100973.08
2019-06-10T23:58:44.477Z,100968.84
